Aérodrome :
LOGIN :

S'inscrire | Disclaimer

   EN    FR    IT 

 










Légende :    VFR   VFR Marginal   IFR   IFR Intensif   IFR Très Intensif
Visi : 
Plafond : 
>= 8 km
>= 3000ft
5 à 8 km
1000 à 3000 ft
1500m à 5 km
500 à 1000 ft
800 à 1500m
200 à 500 ft
< 800m
< 200 ft
Symboles :   Orages  Brouillard  Fortes neiges  Fortes précipitations  Vent > 20 kt
SIGMETs :   Divers  Orages  Givrage  Turbulence  Onde Orograph.  Cendres Volcan.







- Altitude de l'aérodrome : 776 ft
- Code IATA : RMS


ETAR - Ramstein Air Base

DERNIER METAR :
  • 222156Z AUTO 00000KT 9999 CLR 15/11 A2995 RMK AO2 SLP137 T01470107 $

METARs EXPIRÉS :
  • 222056Z AUTO 00000KT 9999 CLR 20/09 A2993 RMK AO2 SLP130 T02020091 52010 $
  • 221956Z AUTO 26003KT 9999 CLR 21/09 A2992 RMK AO2 SLP127 T02080087 $

TAF TAF ETAR
Valide du 22 à 18h jusqu'au 24 à 00h UTC


221808Z 2218/2400 24009KT 9999 FEW030 QNH2990INS
BECMG 2302/2303 23012KT 8000 -RA BKN020 QNH2993INS
TEMPO 2303/2308 24010G20KT 8000 -TSRA BKN030CB
BECMG 2311/2312 27012KT 9999 NSW SCT030 QNH3000INS TX24/2315Z TN13/2303Z
Pas de NOTAMs connus pour ce terrain.



MET'MAP, la Météo Aéronautique d'un coup d'oeil ! - Copyright ORBIFLY Décembre 2007 - Disclaimer

ORBIFLY MET'MAP TEAM :

Programmation & Développement : Alexandra Zaïnal
Conception & Développement : Baudouin d'Aumeries
Co-Programmation & Développement : Marc-Olivier Méhu
Soutien technique & logistique : Manuel Goepfert

Contact : metmap@orbifly.com




SOURCES & CREDITS :

   NOAA